Time;durP1;ratioP1;P1;durP2;ratioP2;P2;SDS_P1;SDS_P2;PMS_P1;PMS_P2;Temp;Humidity;BMP_temperature;BMP_pressure;BME280_temperature;BME280_humidity;BME280_pressure;Samples;Min_cycle;Max_cycle;Signal;HPM_P1;HPM_P2
2023/10/07 00:02:12;;;;;;;;;;;19.70;70.20;;;;;;5094423;28;19946;-71
2023/10/07 00:04:38;;;;;;;;;;;19.70;70.20;;;;;;5115222;28;19920;-71
2023/10/07 00:07:10;;;;;;;;;;;19.70;70.20;;;;;;5098391;28;20428;-71
2023/10/07 00:09:36;;;;;;;;;;;19.70;70.20;;;;;;5116606;28;19961;-71
2023/10/07 00:12:02;;;;;;;;;;;19.70;70.30;;;;;;5098602;28;19920;-71
2023/10/07 00:14:30;;;;;;;;;;;19.70;70.30;;;;;;5116529;28;19920;-71
2023/10/07 00:16:57;;;;;;;;;;;19.60;70.20;;;;;;5097965;28;19920;-72
2023/10/07 00:19:23;;;;;;;;;;;19.60;70.20;;;;;;5098356;28;19959;-72
2023/10/07 00:21:58;;;;;;;;;;;19.70;70.30;;;;;;5098139;28;20339;-71
2023/10/07 00:24:25;;;;;;;;;;;19.60;70.20;;;;;;5116462;28;19919;-71
2023/10/07 00:26:52;;;;;;;;;;;19.60;70.30;;;;;;5098140;28;19926;-71
2023/10/07 00:29:21;;;;;;;;;;;19.60;70.30;;;;;;5116233;28;19920;-72
2023/10/07 00:31:50;;;;;;;;;;;19.60;70.30;;;;;;5116196;28;19920;-71
2023/10/07 00:34:16;;;;;;;;;;;19.60;70.30;;;;;;5098177;28;19923;-71
2023/10/07 00:36:42;;;;;;;;;;;19.60;70.30;;;;;;5097994;28;19920;-71
2023/10/07 00:39:08;;;;;;;;;;;19.60;70.30;;;;;;5097961;28;19920;-71
2023/10/07 00:41:45;;;;;;;;;;;19.70;70.40;;;;;;5097726;28;19919;-71
2023/10/07 00:44:44;;;;;;;;;;;19.60;70.30;;;;;;5098043;28;20314;-71
2023/10/07 00:49:54;;;;;;;;;;;19.60;70.40;;;;;;5110307;27;20367;-71
2023/10/07 00:52:28;;;;;;;;;;;19.60;70.30;;;;;;5108959;28;20018;-71
2023/10/07 00:55:08;;;;;;;;;;;19.60;70.40;;;;;;5108780;28;19920;-71
2023/10/07 01:00:40;;;;;;;;;;;19.60;70.40;;;;;;5110321;27;20375;-71
2023/10/07 01:03:47;;;;;;;;;;;19.60;70.40;;;;;;5109542;28;19963;-70
2023/10/07 01:08:45;;;;;;;;;;;19.60;70.50;;;;;;5089971;28;19919;-71
2023/10/07 01:13:59;;;;;;;;;;;19.60;70.50;;;;;;5110887;27;19916;-70
2023/10/07 01:16:31;;;;;;;;;;;19.60;70.50;;;;;;5108876;28;19924;-72
2023/10/07 01:19:19;;;;;;;;;;;19.60;70.60;;;;;;5109209;28;19924;-71
2023/10/07 01:21:47;;;;;;;;;;;19.60;70.60;;;;;;5108655;28;20023;-71
2023/10/07 01:24:13;;;;;;;;;;;19.50;70.50;;;;;;5108838;28;19920;-71
2023/10/07 01:26:43;;;;;;;;;;;19.70;70.70;;;;;;5108950;28;19963;-72
2023/10/07 01:29:13;;;;;;;;;;;19.60;70.70;;;;;;5108727;28;19926;-71
2023/10/07 01:31:43;;;;;;;;;;;19.60;70.60;;;;;;5109931;28;19919;-72
2023/10/07 01:34:13;;;;;;;;;;;19.50;70.60;;;;;;5109973;28;19979;-71
2023/10/07 01:36:41;;;;;;;;;;;19.50;70.60;;;;;;5108476;28;19927;-72
2023/10/07 01:39:07;;;;;;;;;;;19.60;70.70;;;;;;5108925;28;20014;-71
2023/10/07 01:41:39;;;;;;;;;;;19.60;70.70;;;;;;5108785;28;19980;-71
2023/10/07 01:44:05;;;;;;;;;;;19.60;70.80;;;;;;5108467;28;19920;-71
2023/10/07 01:46:31;;;;;;;;;;;19.60;70.80;;;;;;5108366;28;20321;-71
2023/10/07 01:48:57;;;;;;;;;;;19.50;70.70;;;;;;5108711;28;19924;-71
2023/10/07 01:51:23;;;;;;;;;;;19.60;70.80;;;;;;5108517;28;20283;-71
2023/10/07 01:53:56;;;;;;;;;;;19.50;70.80;;;;;;5108268;28;19924;-71
2023/10/07 01:56:23;;;;;;;;;;;19.60;70.80;;;;;;5108395;28;19919;-71
2023/10/07 01:58:50;;;;;;;;;;;19.60;70.80;;;;;;5108544;28;19924;-71
2023/10/07 02:01:17;;;;;;;;;;;19.50;70.80;;;;;;5108364;28;20065;-70
2023/10/07 02:03:46;;;;;;;;;;;19.50;70.80;;;;;;5108476;28;19919;-72
2023/10/07 02:06:11;;;;;;;;;;;19.50;70.80;;;;;;5107910;28;19920;-71
2023/10/07 02:08:37;;;;;;;;;;;19.50;70.80;;;;;;5107221;28;19924;-71
2023/10/07 02:11:05;;;;;;;;;;;19.50;70.90;;;;;;5108413;28;20142;-71
2023/10/07 02:13:31;;;;;;;;;;;19.50;70.80;;;;;;5108846;28;19975;-71
2023/10/07 02:15:57;;;;;;;;;;;19.50;70.80;;;;;;5107863;28;19970;-72
2023/10/07 02:18:26;;;;;;;;;;;19.50;70.80;;;;;;5107932;28;19920;-71
2023/10/07 02:20:56;;;;;;;;;;;19.50;70.80;;;;;;5108971;28;20169;-72
2023/10/07 02:23:37;;;;;;;;;;;19.50;70.90;;;;;;5104259;28;19993;-71
2023/10/07 02:26:05;;;;;;;;;;;19.50;70.90;;;;;;5094417;28;19920;-72
2023/10/07 02:28:33;;;;;;;;;;;19.50;70.90;;;;;;5095293;28;19942;-71
2023/10/07 02:31:03;;;;;;;;;;;19.50;70.90;;;;;;5094269;28;20276;-71
2023/10/07 02:33:29;;;;;;;;;;;19.50;70.90;;;;;;5093696;28;20437;-72
2023/10/07 02:35:56;;;;;;;;;;;19.50;71.00;;;;;;5094229;28;19920;-72
2023/10/07 02:38:28;;;;;;;;;;;19.50;71.00;;;;;;5095406;28;19940;-71
2023/10/07 02:40:58;;;;;;;;;;;19.50;71.00;;;;;;5093832;28;19965;-71
2023/10/07 02:43:24;;;;;;;;;;;19.50;71.00;;;;;;5095007;28;19943;-71
2023/10/07 02:45:50;;;;;;;;;;;19.50;71.40;;;;;;5093956;28;20367;-72
2023/10/07 02:48:19;;;;;;;;;;;19.50;71.00;;;;;;5093492;28;19921;-71
2023/10/07 02:50:44;;;;;;;;;;;19.50;71.00;;;;;;5093610;28;19920;-71
2023/10/07 02:53:13;;;;;;;;;;;19.50;71.00;;;;;;5093451;28;19931;-71
2023/10/07 02:55:47;;;;;;;;;;;19.50;71.10;;;;;;5093778;28;19935;-71
2023/10/07 02:58:24;;;;;;;;;;;19.50;71.10;;;;;;5127563;27;20417;-71
2023/10/07 03:00:50;;;;;;;;;;;19.50;71.10;;;;;;5093682;28;19920;-71
2023/10/07 03:06:06;;;;;;;;;;;19.50;71.10;;;;;;5093410;28;19986;-71
2023/10/07 03:08:50;;;;;;;;;;;19.50;71.10;;;;;;5094540;28;20283;-72
2023/10/07 03:14:03;;;;;;;;;;;19.50;71.20;;;;;;5092891;28;19924;-71
2023/10/07 03:16:29;;;;;;;;;;;19.50;71.20;;;;;;5093037;28;19924;-71
2023/10/07 03:24:40;;;;;;;;;;;19.40;71.20;;;;;;5110279;27;20282;-71
2023/10/07 03:27:10;;;;;;;;;;;19.40;71.20;;;;;;5109024;28;19920;-71
2023/10/07 03:29:37;;;;;;;;;;;19.50;71.30;;;;;;5108895;28;19920;-71
2023/10/07 03:32:12;;;;;;;;;;;19.50;71.30;;;;;;5109338;28;19920;-72
2023/10/07 03:34:39;;;;;;;;;;;19.50;71.30;;;;;;5109045;28;19965;-71
2023/10/07 03:40:17;;;;;;;;;;;19.50;71.40;;;;;;5089926;28;19912;-72
2023/10/07 03:42:37;;;;;;;;;;;19.40;71.30;;;;;;5087710;28;19920;-71
2023/10/07 03:45:03;;;;;;;;;;;19.50;71.40;;;;;;5088687;28;20279;-71
2023/10/07 03:47:32;;;;;;;;;;;19.50;71.40;;;;;;5088547;28;19920;-72
2023/10/07 03:49:58;;;;;;;;;;;19.50;71.40;;;;;;5088393;28;19927;-71
2023/10/07 03:52:27;;;;;;;;;;;19.50;71.40;;;;;;5088399;28;19925;-70
2023/10/07 03:54:54;;;;;;;;;;;19.40;71.40;;;;;;5088598;28;20363;-71
2023/10/07 03:57:19;;;;;;;;;;;19.40;71.40;;;;;;5089463;28;19921;-71
2023/10/07 03:59:45;;;;;;;;;;;19.40;71.50;;;;;;5088661;28;20256;-72
2023/10/07 04:02:44;;;;;;;;;;;19.50;71.40;;;;;;5089516;28;19969;-71
2023/10/07 04:05:00;;;;;;;;;;;19.40;71.50;;;;;;5088129;28;19927;-71
2023/10/07 04:07:26;;;;;;;;;;;19.40;71.40;;;;;;5088385;28;19985;-72
2023/10/07 04:09:52;;;;;;;;;;;19.40;71.50;;;;;;5088431;28;20386;-71
2023/10/07 04:12:17;;;;;;;;;;;19.40;71.50;;;;;;5087957;28;19921;-72
2023/10/07 04:14:43;;;;;;;;;;;19.40;71.50;;;;;;5088339;28;20275;-71
2023/10/07 04:17:12;;;;;;;;;;;19.40;71.50;;;;;;5088146;28;19928;-71
2023/10/07 04:19:40;;;;;;;;;;;19.50;71.50;;;;;;5087812;28;19932;-73
2023/10/07 04:22:08;;;;;;;;;;;19.50;71.50;;;;;;5088178;28;20012;-73
2023/10/07 04:24:35;;;;;;;;;;;19.50;71.60;;;;;;5088167;28;20279;-71
2023/10/07 04:27:03;;;;;;;;;;;19.50;71.60;;;;;;5089014;28;19962;-72
2023/10/07 04:29:30;;;;;;;;;;;19.50;71.60;;;;;;5088060;28;19974;-71
2023/10/07 04:31:57;;;;;;;;;;;19.40;71.50;;;;;;5089157;28;19921;-71
2023/10/07 04:34:24;;;;;;;;;;;19.50;71.60;;;;;;5087687;28;19959;-71
2023/10/07 04:37:11;;;;;;;;;;;19.40;71.60;;;;;;5088825;28;19927;-71
2023/10/07 04:39:38;;;;;;;;;;;19.40;71.60;;;;;;5087126;28;19925;-71
2023/10/07 04:42:06;;;;;;;;;;;19.40;71.60;;;;;;5087476;28;19966;-71
2023/10/07 04:47:29;;;;;;;;;;;19.40;71.60;;;;;;5087156;28;20015;-71
2023/10/07 04:50:35;;;;;;;;;;;19.40;71.60;;;;;;5080905;28;20008;-71
2023/10/07 04:52:49;;;;;;;;;;;19.50;71.70;;;;;;5073866;28;19924;-71
2023/10/07 04:55:19;;;;;;;;;;;19.40;71.60;;;;;;5075192;28;20295;-71
2023/10/07 05:03:14;;;;;;;;;;;19.40;71.60;;;;;;5110328;27;19912;-72
2023/10/07 05:05:43;;;;;;;;;;;19.40;71.70;;;;;;5108939;28;19959;-72
2023/10/07 05:08:10;;;;;;;;;;;19.40;71.70;;;;;;5108878;28;19970;-72
2023/10/07 05:10:39;;;;;;;;;;;19.40;71.70;;;;;;5108865;28;19965;-71
2023/10/07 05:13:07;;;;;;;;;;;19.40;71.70;;;;;;5108725;28;20070;-71
2023/10/07 05:15:33;;;;;;;;;;;19.40;71.70;;;;;;5108809;28;19920;-72
2023/10/07 05:18:01;;;;;;;;;;;19.40;71.70;;;;;;5108560;28;19920;-73
2023/10/07 05:20:28;;;;;;;;;;;19.40;71.80;;;;;;5108683;28;19930;-73
2023/10/07 05:22:54;;;;;;;;;;;19.40;71.80;;;;;;5108539;28;19924;-71
2023/10/07 05:25:21;;;;;;;;;;;19.40;71.80;;;;;;5109970;28;19928;-72
2023/10/07 05:27:48;;;;;;;;;;;19.40;71.80;;;;;;5108462;28;19974;-72
2023/10/07 05:30:15;;;;;;;;;;;19.40;71.80;;;;;;5108785;28;19920;-72
2023/10/07 05:32:41;;;;;;;;;;;19.40;71.80;;;;;;5108441;28;19927;-72
2023/10/07 05:35:08;;;;;;;;;;;19.40;71.90;;;;;;5108718;28;19920;-72
2023/10/07 05:37:33;;;;;;;;;;;19.40;71.90;;;;;;5108373;28;20005;-71
2023/10/07 05:39:59;;;;;;;;;;;19.40;71.90;;;;;;5108279;28;19977;-71
2023/10/07 05:42:25;;;;;;;;;;;19.40;71.90;;;;;;5109242;28;20322;-71
2023/10/07 05:44:52;;;;;;;;;;;19.40;71.90;;;;;;5108449;28;19924;-70
2023/10/07 05:47:18;;;;;;;;;;;19.40;71.90;;;;;;5108549;28;19920;-71
2023/10/07 05:49:43;;;;;;;;;;;19.40;71.90;;;;;;5109538;28;19973;-71
2023/10/07 05:52:09;;;;;;;;;;;19.40;71.90;;;;;;5108116;28;19926;-72
2023/10/07 05:54:34;;;;;;;;;;;19.40;72.00;;;;;;5108282;28;19926;-72
2023/10/07 05:57:03;;;;;;;;;;;19.40;72.00;;;;;;5108019;28;20337;-72
2023/10/07 05:59:33;;;;;;;;;;;19.40;72.00;;;;;;5108206;28;19923;-71
2023/10/07 06:02:01;;;;;;;;;;;19.40;72.00;;;;;;5107669;28;19931;-72
2023/10/07 06:04:28;;;;;;;;;;;19.40;72.00;;;;;;5108065;28;19943;-71
2023/10/07 06:06:53;;;;;;;;;;;19.40;72.00;;;;;;5108008;28;19927;-71
2023/10/07 06:09:21;;;;;;;;;;;19.40;72.10;;;;;;5108032;28;19920;-72
2023/10/07 06:11:48;;;;;;;;;;;19.40;72.10;;;;;;5107968;28;19927;-72
2023/10/07 06:14:15;;;;;;;;;;;19.40;72.10;;;;;;5095917;28;19920;-71
2023/10/07 06:16:42;;;;;;;;;;;19.40;72.20;;;;;;5094263;28;19921;-73
2023/10/07 06:19:07;;;;;;;;;;;19.40;72.10;;;;;;5095441;28;20255;-71
2023/10/07 06:21:33;;;;;;;;;;;19.40;72.10;;;;;;5093848;28;19931;-72
2023/10/07 06:23:59;;;;;;;;;;;19.40;72.10;;;;;;5095260;28;20057;-71
2023/10/07 06:26:25;;;;;;;;;;;19.40;72.10;;;;;;5093811;28;19931;-72
2023/10/07 06:28:51;;;;;;;;;;;19.40;72.20;;;;;;5093914;28;19920;-71
2023/10/07 06:31:31;;;;;;;;;;;19.30;72.10;;;;;;5094042;28;20008;-72
2023/10/07 06:34:00;;;;;;;;;;;19.40;72.20;;;;;;5095307;28;19924;-71
2023/10/07 06:36:26;;;;;;;;;;;19.40;72.20;;;;;;5093937;28;19969;-72
2023/10/07 06:38:53;;;;;;;;;;;19.40;72.20;;;;;;5094170;28;19920;-71
2023/10/07 06:41:19;;;;;;;;;;;19.40;72.20;;;;;;5094670;28;19964;-71
2023/10/07 06:43:50;;;;;;;;;;;19.40;72.30;;;;;;5093837;28;20402;-71
2023/10/07 06:46:20;;;;;;;;;;;19.40;72.20;;;;;;5094713;28;19935;-71
2023/10/07 06:48:48;;;;;;;;;;;19.40;72.20;;;;;;5092787;28;20398;-71
2023/10/07 06:51:14;;;;;;;;;;;19.30;72.20;;;;;;5092068;28;19924;-75
2023/10/07 06:53:42;;;;;;;;;;;19.40;72.30;;;;;;5091724;28;20454;-76
2023/10/07 06:56:12;;;;;;;;;;;19.40;72.30;;;;;;5091310;28;19970;-76
2023/10/07 06:58:38;;;;;;;;;;;19.40;72.30;;;;;;5088719;28;19920;-76
2023/10/07 07:01:17;;;;;;;;;;;19.40;72.40;;;;;;5094410;28;20371;-75
2023/10/07 07:03:43;;;;;;;;;;;19.40;72.50;;;;;;5095259;28;19931;-76
2023/10/07 07:06:16;;;;;;;;;;;19.40;72.50;;;;;;5113196;28;19920;-76
2023/10/07 07:08:42;;;;;;;;;;;19.40;72.50;;;;;;5095116;28;19932;-76
2023/10/07 07:11:10;;;;;;;;;;;19.40;72.60;;;;;;5095111;28;19920;-74
2023/10/07 07:13:36;;;;;;;;;;;19.50;72.70;;;;;;5095152;28;19934;-75
2023/10/07 07:16:13;;;;;;;;;;;19.40;72.80;;;;;;5111229;28;19919;-79
2023/10/07 07:18:40;;;;;;;;;;;19.50;72.90;;;;;;5095124;28;19919;-76
2023/10/07 07:21:37;;;;;;;;;;;19.50;72.90;;;;;;5129432;27;20290;-76
2023/10/07 07:23:51;;;;;;;;;;;19.40;72.90;;;;;;5095084;28;19919;-76
2023/10/07 07:26:20;;;;;;;;;;;19.50;73.00;;;;;;5092857;28;19927;-76
2023/10/07 07:28:45;;;;;;;;;;;19.50;73.10;;;;;;5095402;28;19965;-74
2023/10/07 07:31:11;;;;;;;;;;;19.50;73.10;;;;;;5095094;28;19920;-75
2023/10/07 07:33:37;;;;;;;;;;;19.50;73.20;;;;;;5112503;28;19920;-75
2023/10/07 07:36:35;;;;;;;;;;;19.60;73.20;;;;;;5095257;28;19926;-76
2023/10/07 07:38:52;;;;;;;;;;;19.60;73.30;;;;;;5094692;28;20443;-76
2023/10/07 07:44:10;;;;;;;;;;;19.50;73.20;;;;;;5094285;28;20006;-75
2023/10/07 07:47:06;;;;;;;;;;;19.60;73.30;;;;;;5112473;28;19973;-80
2023/10/07 07:49:21;;;;;;;;;;;19.60;73.30;;;;;;5112179;28;19982;-76
2023/10/07 07:51:51;;;;;;;;;;;19.60;73.30;;;;;;5094580;28;20448;-74
2023/10/07 07:54:17;;;;;;;;;;;19.70;73.40;;;;;;5123752;27;19928;-77
2023/10/07 07:56:45;;;;;;;;;;;19.70;73.40;;;;;;5093841;28;20348;-77
2023/10/07 07:59:13;;;;;;;;;;;19.70;73.40;;;;;;5094350;28;20256;-74
2023/10/07 08:04:37;;;;;;;;;;;19.70;73.40;;;;;;5108310;27;19937;-77
2023/10/07 08:07:06;;;;;;;;;;;19.80;73.40;;;;;;5095096;28;19920;-75
2023/10/07 08:09:36;;;;;;;;;;;19.80;73.40;;;;;;5107925;28;20321;-77
2023/10/07 08:12:04;;;;;;;;;;;19.80;73.40;;;;;;5107664;28;20327;-78
2023/10/07 08:14:32;;;;;;;;;;;19.70;73.40;;;;;;5107504;28;19927;-77
2023/10/07 08:16:58;;;;;;;;;;;19.80;73.40;;;;;;5108368;28;20283;-79
2023/10/07 08:19:24;;;;;;;;;;;19.80;73.40;;;;;;5107171;28;19931;-76
2023/10/07 08:21:51;;;;;;;;;;;19.80;73.40;;;;;;5107813;28;19920;-75
2023/10/07 08:24:30;;;;;;;;;;;19.80;73.50;;;;;;5108152;28;19924;-75
2023/10/07 08:26:59;;;;;;;;;;;19.80;73.50;;;;;;5108148;28;20339;-76
2023/10/07 08:29:33;;;;;;;;;;;19.80;73.40;;;;;;5107266;28;19931;-74
2023/10/07 08:32:00;;;;;;;;;;;19.80;73.50;;;;;;5093570;28;19931;-73
2023/10/07 08:34:33;;;;;;;;;;;19.80;73.50;;;;;;5108748;28;19926;-75
2023/10/07 08:37:02;;;;;;;;;;;19.80;73.40;;;;;;5107497;28;19920;-71
2023/10/07 08:39:28;;;;;;;;;;;19.80;73.50;;;;;;5107714;28;20000;-71
2023/10/07 08:41:58;;;;;;;;;;;19.80;73.50;;;;;;5107949;28;19993;-71
2023/10/07 08:44:31;;;;;;;;;;;19.80;73.40;;;;;;5106980;28;19919;-74
2023/10/07 08:47:04;;;;;;;;;;;19.80;73.50;;;;;;5088564;28;19928;-70
2023/10/07 08:49:32;;;;;;;;;;;19.80;73.50;;;;;;5089676;28;19957;-80
2023/10/07 08:51:59;;;;;;;;;;;19.80;73.40;;;;;;5107506;28;19927;-73
2023/10/07 08:54:26;;;;;;;;;;;19.90;73.50;;;;;;5108233;28;19931;-73
2023/10/07 08:56:54;;;;;;;;;;;19.80;73.50;;;;;;5107335;28;19920;-76
2023/10/07 08:59:22;;;;;;;;;;;19.90;73.50;;;;;;5104708;28;19919;-72
2023/10/07 09:01:48;;;;;;;;;;;19.90;73.60;;;;;;5107650;28;19920;-70
2023/10/07 09:04:17;;;;;;;;;;;19.90;73.60;;;;;;5127971;28;20466;-72
2023/10/07 09:06:50;;;;;;;;;;;19.80;73.50;;;;;;5109498;28;20338;-71
2023/10/07 09:09:35;;;;;;;;;;;19.90;73.60;;;;;;5128214;28;19924;-75
2023/10/07 09:12:08;;;;;;;;;;;19.90;73.60;;;;;;5110504;28;19966;-71
2023/10/07 09:14:33;;;;;;;;;;;20.00;73.60;;;;;;5101898;28;19924;-71
2023/10/07 09:17:04;;;;;;;;;;;19.90;73.60;;;;;;5095925;28;19920;-78
2023/10/07 09:19:29;;;;;;;;;;;19.90;73.70;;;;;;5113342;28;20394;-71
2023/10/07 09:21:57;;;;;;;;;;;19.90;73.60;;;;;;5096236;28;19920;-73
2023/10/07 09:24:24;;;;;;;;;;;19.90;73.60;;;;;;5096793;28;19920;-73
2023/10/07 09:26:56;;;;;;;;;;;19.90;73.70;;;;;;5114792;28;19977;-72
2023/10/07 09:29:24;;;;;;;;;;;19.90;73.60;;;;;;5096275;28;19926;-72
2023/10/07 09:31:59;;;;;;;;;;;20.00;73.70;;;;;;5095816;28;19927;-74
2023/10/07 09:34:41;;;;;;;;;;;20.00;73.80;;;;;;5113936;28;19927;-74
2023/10/07 09:37:12;;;;;;;;;;;20.00;73.80;;;;;;5113556;28;20379;-71
2023/10/07 09:39:44;;;;;;;;;;;20.00;73.70;;;;;;5110240;28;20076;-71
2023/10/07 09:42:26;;;;;;;;;;;20.00;73.70;;;;;;5076051;28;19920;-70
2023/10/07 09:44:55;;;;;;;;;;;20.00;73.70;;;;;;5110259;28;19927;-74
2023/10/07 09:47:21;;;;;;;;;;;20.00;73.70;;;;;;5124054;27;20375;-70
2023/10/07 09:49:47;;;;;;;;;;;20.00;73.60;;;;;;5114316;28;19919;-71
2023/10/07 09:52:17;;;;;;;;;;;20.00;74.50;;;;;;5095922;28;20298;-71
2023/10/07 09:54:49;;;;;;;;;;;20.00;73.70;;;;;;5111720;28;20283;-70
2023/10/07 09:57:22;;;;;;;;;;;20.10;73.80;;;;;;5095269;28;20006;-71
2023/10/07 09:59:56;;;;;;;;;;;20.10;73.70;;;;;;5095517;28;20443;-71
2023/10/07 10:02:43;;;;;;;;;;;20.10;73.70;;;;;;5093841;28;19924;-71
2023/10/07 10:10:32;;;;;;;;;;;20.10;73.70;;;;;;5109794;27;19919;-73
2023/10/07 10:15:52;;;;;;;;;;;20.10;73.70;;;;;;5109479;27;19912;-72
2023/10/07 10:18:38;;;;;;;;;;;20.10;73.60;;;;;;5108545;28;19945;-72
2023/10/07 10:21:04;;;;;;;;;;;20.10;73.70;;;;;;5109097;28;19924;-72
2023/10/07 10:23:33;;;;;;;;;;;20.10;73.70;;;;;;5108087;28;19959;-73
2023/10/07 10:26:13;;;;;;;;;;;20.10;73.70;;;;;;5106424;28;19928;-71
2023/10/07 10:28:41;;;;;;;;;;;20.10;73.70;;;;;;5107495;28;19920;-72
2023/10/07 10:31:22;;;;;;;;;;;20.10;73.70;;;;;;5108179;28;19928;-72
2023/10/07 10:33:49;;;;;;;;;;;20.00;73.80;;;;;;5109918;28;19930;-71
2023/10/07 10:36:21;;;;;;;;;;;20.00;73.80;;;;;;5109944;28;19924;-71
2023/10/07 10:38:47;;;;;;;;;;;20.00;73.80;;;;;;5108859;28;19924;-72
2023/10/07 10:41:15;;;;;;;;;;;20.00;73.80;;;;;;5108586;28;20409;-71
2023/10/07 10:43:41;;;;;;;;;;;20.00;73.80;;;;;;5108474;28;19920;-72
2023/10/07 10:46:07;;;;;;;;;;;20.00;73.80;;;;;;5108473;28;19920;-72
2023/10/07 10:48:34;;;;;;;;;;;19.90;73.70;;;;;;5142719;27;19920;-72
2023/10/07 10:51:05;;;;;;;;;;;20.00;73.80;;;;;;5108692;28;19920;-71
2023/10/07 10:53:32;;;;;;;;;;;19.90;73.80;;;;;;5108100;28;20298;-72
2023/10/07 10:55:57;;;;;;;;;;;19.90;73.80;;;;;;5108373;28;19931;-71
2023/10/07 10:58:23;;;;;;;;;;;19.90;73.80;;;;;;5109578;28;19920;-71
2023/10/07 11:00:50;;;;;;;;;;;19.90;73.80;;;;;;5109387;28;20020;-72
2023/10/07 11:03:20;;;;;;;;;;;19.90;73.80;;;;;;5108118;28;19927;-72
2023/10/07 11:05:54;;;;;;;;;;;19.80;73.70;;;;;;5107933;28;19927;-71
2023/10/07 11:08:24;;;;;;;;;;;19.90;73.80;;;;;;5109328;28;19920;-72
2023/10/07 11:10:53;;;;;;;;;;;19.90;73.80;;;;;;5107948;28;20014;-72
2023/10/07 11:13:20;;;;;;;;;;;19.80;73.70;;;;;;5108352;28;20326;-72
2023/10/07 11:15:53;;;;;;;;;;;19.80;73.70;;;;;;5111320;28;19923;-72
2023/10/07 11:18:19;;;;;;;;;;;19.80;73.70;;;;;;5111458;28;20272;-72
2023/10/07 11:20:45;;;;;;;;;;;19.80;73.70;;;;;;5129459;28;20405;-72
2023/10/07 11:23:15;;;;;;;;;;;19.80;73.70;;;;;;5129521;28;19920;-72
2023/10/07 11:25:41;;;;;;;;;;;19.80;73.70;;;;;;5105252;28;19934;-71
2023/10/07 11:28:11;;;;;;;;;;;19.80;73.70;;;;;;5115836;28;20290;-72
2023/10/07 11:33:24;;;;;;;;;;;19.80;73.70;;;;;;5110267;27;19934;-72
2023/10/07 11:35:58;;;;;;;;;;;19.80;73.70;;;;;;5092212;28;19945;-71
2023/10/07 11:38:25;;;;;;;;;;;19.80;73.70;;;;;;5091906;28;19937;-72
2023/10/07 11:40:50;;;;;;;;;;;19.80;73.70;;;;;;5091799;28;19973;-72
2023/10/07 11:43:16;;;;;;;;;;;19.80;73.70;;;;;;5109035;28;19920;-71
2023/10/07 11:45:43;;;;;;;;;;;19.80;73.70;;;;;;5091681;28;19955;-71
2023/10/07 11:48:09;;;;;;;;;;;19.80;73.70;;;;;;5091779;28;19924;-71
2023/10/07 11:50:35;;;;;;;;;;;19.80;73.70;;;;;;5091880;28;19977;-72
2023/10/07 11:53:02;;;;;;;;;;;19.80;73.70;;;;;;5090874;28;19931;-71
2023/10/07 11:55:27;;;;;;;;;;;19.80;73.70;;;;;;5091832;28;19924;-72
2023/10/07 11:57:54;;;;;;;;;;;19.80;73.70;;;;;;5110221;28;20425;-72
2023/10/07 12:00:34;;;;;;;;;;;19.80;73.70;;;;;;5091508;28;19920;-71
2023/10/07 12:03:01;;;;;;;;;;;19.80;73.60;;;;;;5091451;28;19951;-71
2023/10/07 12:05:27;;;;;;;;;;;19.80;73.60;;;;;;5091680;28;19920;-72
2023/10/07 12:07:59;;;;;;;;;;;19.80;73.60;;;;;;5091309;28;19995;-72
2023/10/07 12:10:25;;;;;;;;;;;19.80;73.60;;;;;;5091589;28;20260;-72
2023/10/07 12:12:52;;;;;;;;;;;19.80;73.60;;;;;;5109397;28;20022;-72
2023/10/07 12:15:17;;;;;;;;;;;19.80;73.60;;;;;;5091205;28;19920;-72
2023/10/07 12:17:44;;;;;;;;;;;19.80;73.60;;;;;;5109038;28;20014;-73
2023/10/07 12:20:12;;;;;;;;;;;19.80;73.60;;;;;;5091164;28;19924;-71
2023/10/07 12:22:42;;;;;;;;;;;19.80;73.50;;;;;;5091314;28;19927;-73
2023/10/07 12:25:08;;;;;;;;;;;19.80;73.50;;;;;;5109212;28;20298;-72
2023/10/07 12:27:36;;;;;;;;;;;19.80;73.50;;;;;;5108170;28;19969;-72
2023/10/07 12:30:03;;;;;;;;;;;19.80;73.50;;;;;;5090369;28;19927;-72
2023/10/07 12:32:28;;;;;;;;;;;19.80;73.50;;;;;;5108576;28;19924;-72
2023/10/07 12:34:56;;;;;;;;;;;19.80;73.50;;;;;;5090797;28;19920;-71
2023/10/07 12:37:21;;;;;;;;;;;19.80;73.50;;;;;;5090791;28;19920;-71
2023/10/07 12:39:49;;;;;;;;;;;19.80;73.50;;;;;;5109122;28;19927;-72
2023/10/07 12:42:14;;;;;;;;;;;19.80;73.40;;;;;;5109373;28;20256;-72
2023/10/07 12:44:40;;;;;;;;;;;19.80;73.40;;;;;;5077681;28;20174;-71
2023/10/07 12:47:05;;;;;;;;;;;19.80;73.40;;;;;;5095515;28;20432;-72
2023/10/07 12:49:31;;;;;;;;;;;19.80;73.30;;;;;;5077411;28;20322;-71
2023/10/07 12:51:57;;;;;;;;;;;19.80;73.40;;;;;;5095210;28;20019;-71
2023/10/07 12:54:22;;;;;;;;;;;19.80;73.30;;;;;;5077262;28;20276;-71
2023/10/07 12:56:48;;;;;;;;;;;19.80;73.30;;;;;;5095130;28;19927;-72
2023/10/07 12:59:35;;;;;;;;;;;19.80;73.30;;;;;;5077119;28;19924;-72
2023/10/07 13:01:59;;;;;;;;;;;19.80;73.20;;;;;;5076737;28;19921;-72
2023/10/07 13:04:26;;;;;;;;;;;19.80;73.20;;;;;;5094893;28;19955;-71
2023/10/07 13:06:55;;;;;;;;;;;19.80;73.20;;;;;;5076765;28;19920;-71
2023/10/07 13:09:20;;;;;;;;;;;19.80;73.20;;;;;;5094795;28;19920;-71
2023/10/07 13:11:49;;;;;;;;;;;19.80;73.20;;;;;;5076575;28;19931;-71
2023/10/07 13:14:14;;;;;;;;;;;19.80;73.20;;;;;;5076607;28;19966;-72
2023/10/07 13:16:45;;;;;;;;;;;19.80;73.20;;;;;;5076561;28;19982;-72
2023/10/07 13:19:11;;;;;;;;;;;19.80;73.20;;;;;;5094739;28;19920;-73
2023/10/07 13:21:37;;;;;;;;;;;19.80;73.10;;;;;;5094638;28;20398;-71
2023/10/07 13:24:07;;;;;;;;;;;19.80;73.10;;;;;;5094510;28;20384;-72
2023/10/07 13:26:33;;;;;;;;;;;19.80;73.10;;;;;;5076507;28;19920;-72
2023/10/07 13:28:59;;;;;;;;;;;19.80;73.10;;;;;;5093136;28;20008;-72
2023/10/07 13:31:24;;;;;;;;;;;19.80;73.10;;;;;;5094498;28;19972;-73
2023/10/07 13:33:51;;;;;;;;;;;19.80;73.10;;;;;;5076269;28;19928;-71
2023/10/07 13:36:17;;;;;;;;;;;19.80;73.10;;;;;;5094420;28;19920;-72
2023/10/07 13:38:42;;;;;;;;;;;19.80;73.10;;;;;;5093059;28;19920;-72
2023/10/07 13:41:08;;;;;;;;;;;19.80;73.10;;;;;;5076057;28;20020;-72
2023/10/07 13:43:34;;;;;;;;;;;19.80;73.10;;;;;;5076043;28;19974;-73
2023/10/07 13:46:03;;;;;;;;;;;19.80;73.20;;;;;;5076073;28;19920;-72
2023/10/07 13:48:30;;;;;;;;;;;19.80;73.10;;;;;;5076440;28;20295;-72
2023/10/07 13:51:05;;;;;;;;;;;19.80;73.10;;;;;;5093959;28;19924;-71
2023/10/07 13:56:32;;;;;;;;;;;19.80;73.40;;;;;;5074950;28;19926;-71
2023/10/07 13:59:02;;;;;;;;;;;19.80;73.50;;;;;;5075768;28;19920;-72
2023/10/07 14:01:29;;;;;;;;;;;19.80;73.40;;;;;;5075918;28;19924;-71
2023/10/07 14:03:55;;;;;;;;;;;19.80;73.20;;;;;;5093879;28;20383;-71
2023/10/07 14:06:20;;;;;;;;;;;19.80;73.20;;;;;;5093677;28;19972;-72
2023/10/07 14:08:50;;;;;;;;;;;19.80;73.20;;;;;;5093713;28;19971;-72
2023/10/07 14:11:15;;;;;;;;;;;19.80;73.10;;;;;;5075422;28;20303;-71
2023/10/07 14:13:46;;;;;;;;;;;19.80;73.20;;;;;;5075467;28;19924;-72
2023/10/07 14:16:17;;;;;;;;;;;19.80;73.20;;;;;;5093601;28;20370;-71
2023/10/07 14:18:44;;;;;;;;;;;19.80;73.20;;;;;;5075664;28;19961;-74
2023/10/07 14:21:10;;;;;;;;;;;19.80;73.20;;;;;;5075225;28;20002;-73
2023/10/07 14:23:36;;;;;;;;;;;19.80;73.20;;;;;;5075301;28;19923;-72
2023/10/07 14:26:02;;;;;;;;;;;19.80;73.20;;;;;;5075588;28;19920;-72
2023/10/07 14:28:28;;;;;;;;;;;19.80;73.20;;;;;;5075192;28;19920;-72
2023/10/07 14:30:55;;;;;;;;;;;19.80;73.10;;;;;;5093257;28;19926;-71
2023/10/07 14:33:21;;;;;;;;;;;19.80;73.20;;;;;;5074957;28;19928;-73
2023/10/07 14:35:47;;;;;;;;;;;19.80;73.10;;;;;;5074936;28;19973;-72
2023/10/07 14:38:13;;;;;;;;;;;19.80;73.20;;;;;;5075272;28;19920;-71
2023/10/07 14:40:39;;;;;;;;;;;19.80;73.20;;;;;;5074948;28;20440;-73
2023/10/07 14:43:05;;;;;;;;;;;19.80;73.30;;;;;;5075131;28;19931;-72
2023/10/07 14:45:34;;;;;;;;;;;19.80;73.20;;;;;;5075185;28;20294;-71
2023/10/07 14:48:00;;;;;;;;;;;19.80;73.20;;;;;;5075077;28;19968;-71
2023/10/07 14:50:27;;;;;;;;;;;19.80;73.20;;;;;;5093009;28;20006;-71
2023/10/07 14:52:53;;;;;;;;;;;19.80;73.20;;;;;;5074673;28;20287;-72
2023/10/07 14:55:18;;;;;;;;;;;19.80;73.20;;;;;;5075216;28;19927;-72
2023/10/07 14:57:45;;;;;;;;;;;19.80;73.20;;;;;;5075012;28;20405;-72
2023/10/07 15:00:11;;;;;;;;;;;19.80;73.10;;;;;;5074988;28;20264;-71
2023/10/07 15:02:38;;;;;;;;;;;19.80;73.20;;;;;;5074900;28;20287;-72
2023/10/07 15:05:05;;;;;;;;;;;19.80;73.20;;;;;;5074590;28;19920;-72
2023/10/07 15:07:31;;;;;;;;;;;19.80;73.10;;;;;;5092342;28;20289;-72
2023/10/07 15:09:56;;;;;;;;;;;19.80;73.20;;;;;;5074871;28;19920;-71
2023/10/07 15:12:23;;;;;;;;;;;19.80;73.20;;;;;;5074332;28;19930;-71
2023/10/07 15:14:48;;;;;;;;;;;19.80;73.30;;;;;;5092619;28;20007;-71
2023/10/07 15:17:15;;;;;;;;;;;19.80;73.20;;;;;;5092858;28;19970;-73
2023/10/07 15:19:41;;;;;;;;;;;19.80;73.30;;;;;;5074402;28;19920;-71